Ottawa International, Ontario

7:11 AM EDT on August 30, 2014 (GMT -0400)
Ottawa-Macdonald-Cartier International | Change Station
CLOSE
Current Station
Airport
Location: Ottawa International,
Elevation: 374 ft
Nearby Weather Stations

Elev 374 ft 45.32 °N, 75.67 °W | Updated 11 minutes ago

Mostly Cloudy
Mostly Cloudy
61 °F
Feels Like 61 °F
N
8
Wind Variable Wind from South

Today is forecast to be nearly the same temperature as yesterday.

Today
High -- | Low -- °F
--% Chance of Precip.
Yesterday
High -- | Low -- °F
Precip. -- in
6:21 AM 7:43 PM
Waxing Crescent, 21% visible
Pressure 30.10 in
Visibility 15.0 miles
Clouds Scattered Clouds 14000 ft
Mostly Cloudy 18000 ft
Mostly Cloudy 24000 ft
Dew Point 55 °F
Humidity 82%
Rainfall 0.00 in
Snow Depth Not available.
UV 0 out of 12
Pollen Not available.
Air Quality Not available.
Flu Activity Not available.
METAR CYOW 301100Z 18007KT 15SM SCT140 BKN180 BKN240 16/13 A3009 RMK AC3AC3CI1 SLP191

More Conditions Fewer Conditions

Pressure 30.10 in
Visibility 15.0 miles
Clouds Scattered Clouds 14000 ft
Mostly Cloudy 18000 ft
Mostly Cloudy 24000 ft
Dew Point 55 °F
Humidity 82%
Rainfall 0.00 in
Snow Depth Not available.
UV 0 out of 12
Pollen Not available.
Air Quality Not available.
Flu Activity Not available.
METAR CYOW 301100Z 18007KT 15SM SCT140 BKN180 BKN240 16/13 A3009 RMK AC3AC3CI1 SLP191

More Conditions Fewer Conditions

10-Day Weather Forecast

Almanac

Astronomy

Aug. 30, 2014 Rise Set
Actual Time 6:21 AM EDT 7:43 PM EDT
Civil Twilight 5:51 AM EDT 8:14 PM EDT
Nautical Twilight 5:14 AM EDT 8:51 PM EDT
Astronomical Twilight 4:34 AM EDT 9:30 PM EDT
Moon 11:22 AM EDT 10:00 PM EDT
Length of Visible Light 14h 23m
Length of Day
13h 22m
Tomorrow will be 3m 2s shorter.
Waxing Crescent, 21% of the Moon is Illuminated
Today
Waxing Crescent
Sep 2
First Quarter
Sep 8
Full
Sep 15
Last Quarter
Sep 24
New

Yesterday's Extremes

Country Highs Country Lows

Community

WunderPhotos

Upload Photos

1,748,492 photos uploaded!

WunderBlogs® & News

By Dr. Jeff Masters
Director of Meteorology, Weather Underground
By Kari Strenfel
Meteorologist, Weather Underground
By Christopher C. Burt
Weather Historian, Weather Underground
August 30, 2014
August 29, 2014
August 29, 2014

Nearby

Snow Depth

Not available.

Earthquake Activity

City Distance Mag. Time & Date
No recent earthquake activity has been reported nearby.
Minimum magnitude displayed is 2.5.

Coastal Water Temperatures

Place Temperature
No Stations Reporting

Nearby Weather Stations